Weather observations for the past three days for
Port Hope
| Date | Time (edt) | Wind (kph) | Vis. (km) | Weather | Sky Cond. | Temperature (ºC) | Relative Humidity | Wind Chill (°C) | Heat Index (°C) | Pressure | Precipitation (cm) | ||||||
|---|---|---|---|---|---|---|---|---|---|---|---|---|---|---|---|---|---|
| Air | Dwpt | 6 hour | altimeter (cm) | sea level (mb) | 1 hr | 3 hr | 6 hr | ||||||||||
| Max. | Min. | ||||||||||||||||
| 10 | 09:55 | NW 26 G 43 | 0.00 | NULL | NULL | 8.3 | 0 | 56% | 5 | 76.17 | 1016.0 | ||||||
| 10 | 08:55 | W 22 G 39 | 0.00 | NULL | NULL | 7.8 | -1.1 | 54% | 5 | 76.15 | 1015.5 | ||||||
| 10 | 07:55 | W 17 | 0.00 | NULL | NULL | 7.2 | -1.1 | 7.8 | 3.9 | 56% | 5 | 76.1 | 1014.8 | ||||
| 10 | 06:55 | W 9 | 0.00 | NULL | NULL | 4.4 | -1.1 | 68% | 2 | 76.02 | 1013.9 | ||||||
| 10 | 05:55 | W 11 | 0.00 | NULL | NULL | 4.4 | -1.1 | 68% | 2 | 75.97 | 1013.1 | ||||||
| 10 | 04:55 | W 19 G 35 | 0.00 | NULL | NULL | 6.1 | -2.2 | 56% | 3 | 75.92 | 1012.1 | ||||||
| 10 | 03:55 | NW 24 G 43 | 0.00 | NULL | NULL | 6.7 | 0.6 | 65% | 3 | 75.87 | 1011.5 | ||||||
| 10 | 02:55 | NW 26 G 39 | 0.00 | NULL | NULL | 7.2 | 0 | 61% | 4 | 75.82 | 1010.8 | ||||||
| 10 | 01:55 | NW 17 | 0.00 | NULL | NULL | 7.8 | 0.6 | 12.8 | 5.6 | 61% | 5 | 75.77 | 1010.4 | ||||
| 10 | 00:55 | NW 15 G 31 | 0.00 | NULL | NULL | 7.2 | 1.7 | 68% | 5 | 75.74 | 1009.7 | ||||||
| 09 | 23:55 | Vrbl 11 | 0.00 | NULL | NULL | 6.1 | 2.8 | 80% | 4 | 75.69 | 1009.1 | ||||||
| 09 | 22:55 | N 19 | 0.00 | NULL | NULL | 7.2 | 2.8 | 74% | 4 | 75.62 | 1008.2 | ||||||
| 09 | 21:55 | W 15 | 0.00 | NULL | NULL | 10 | 2.8 | 61% | 8 | 75.51 | 1006.6 | ||||||
| 09 | 20:55 | W 26 G 37 | 0.00 | NULL | NULL | 11.7 | 2.2 | 52% | 75.39 | 1005.3 | |||||||
| 09 | 19:55 | W 22 G 39 | 0.00 | NULL | NULL | 11.7 | 2.8 | 17.2 | 11.1 | 55% | 75.29 | 1003.8 | |||||
| 09 | 18:55 | W 31 G 52 | 0.00 | NULL | NULL | 12.2 | 4.4 | 59% | 75.21 | 1002.6 | |||||||
| 09 | 17:55 | W 28 G 54 | 0.00 | NULL | NULL | 16.7 | 2.8 | 40% | 75.08 | 1001.0 | |||||||
| 09 | 16:55 | W 31 G 67 | 0.00 | NULL | NULL | 17.2 | 3.9 | 41% | 75.03 | 1000.4 | |||||||
| 09 | 15:55 | W 26 G 50 | 0.00 | NULL | NULL | 17.2 | 5.6 | 47% | 74.98 | 999.7 | |||||||
| 09 | 14:55 | W 31 G 65 | 0.00 | NULL | NULL | 15.6 | 5.6 | 52% | 74.98 | 999.6 | |||||||
| 09 | 13:55 | SW 20 G 61 | 0.00 | NULL | NULL | 13.3 | 7.8 | 18.3 | 9.4 | 70% | 74.98 | 999.6 | |||||
| 09 | 12:55 | SW 26 G 48 | 0.00 | NULL | NULL | 17.8 | 7.8 | 52% | 74.96 | 999.2 | |||||||
| 09 | 11:55 | SW 19 G 43 | 0.00 | NULL | NULL | 17.2 | 6.1 | 48% | 74.9 | 998.7 | |||||||
| 09 | 10:55 | S 19 G 37 | 0.00 | NULL | NULL | 15.6 | 8.3 | 62% | 74.96 | 999.3 | |||||||
| 09 | 09:55 | Vrbl 7 | 0.00 | NULL | NULL | 12.8 | 8.9 | 77% | 75.08 | 1000.8 | |||||||
| 09 | 08:55 | Vrbl 11 | 0.00 | NULL | NULL | 10.6 | 7.8 | 83% | 75.16 | 1002.1 | |||||||
| 09 | 07:55 | NE 9 | 0.00 | NULL | NULL | 10 | 5.6 | 11.7 | 8.3 | 74% | 9 | 75.21 | 1002.5 | ||||
| 09 | 06:55 | S 13 | 0.00 | NULL | NULL | 10.6 | 2.8 | 59% | 75.16 | 1001.9 | |||||||
| 09 | 05:55 | SW 9 | 0.00 | NULL | NULL | 9.4 | 1.1 | 56% | 8 | 75.23 | 1003.1 | ||||||
| 09 | 04:55 | SW 9 | 0.00 | NULL | NULL | 8.3 | 4.4 | 77% | 7 | 75.26 | 1003.4 | ||||||
| 09 | 03:55 | SW 9 | 0.00 | NULL | NULL | 8.9 | 5 | 77% | 8 | 75.29 | 1003.6 | ||||||
| 09 | 02:55 | Vrbl 9 | 0.00 | NULL | NULL | 8.9 | 6.7 | 86% | 8 | 75.31 | 1004.1 | ||||||
| 09 | 01:55 | S 13 | 0.00 | NULL | NULL | 10 | 6.7 | 12.8 | 7.8 | 80% | 8 | 75.36 | 1004.9 | ||||
| 09 | 00:55 | Vrbl 7 | 0.00 | NULL | NULL | 10 | 5.6 | 74% | 9 | 75.41 | 1005.4 | ||||||
| 08 | 23:55 | S 7 | 0.00 | NULL | NULL | 8.3 | -0.6 | 54% | 7 | 75.44 | 1005.8 | ||||||
| 08 | 22:55 | S 9 | 0.00 | NULL | NULL | 8.9 | -0.6 | 52% | 8 | 75.46 | 1006.2 | ||||||
| 08 | 21:55 | S 15 | 0.00 | NULL | NULL | 10 | -1.1 | 46% | 8 | 75.46 | 1006.3 | ||||||
| 08 | 20:55 | SE 13 | 0.00 | NULL | NULL | 10.6 | -0.6 | 46% | 75.46 | 1006.1 | |||||||
| 08 | 19:55 | SE 15 G 30 | 0.00 | NULL | NULL | 12.8 | -1.1 | 16.7 | 11.1 | 38% | 75.44 | 1006.0 | |||||
| 08 | 18:55 | SW 13 G 28 | 0.00 | NULL | NULL | 15.6 | -5 | 24% | 75.44 | 1006.1 | |||||||
| 08 | 17:55 | SW 19 G 41 | 0.00 | NULL | NULL | 16.1 | -5 | 23% | 75.46 | 1006.3 | |||||||
| 08 | 16:55 | SW 15 G 30 | 0.00 | NULL | NULL | 16.1 | -4.4 | 24% | 75.49 | 1006.8 | |||||||
| 08 | 15:55 | SW 15 G 35 | 0.00 | NULL | NULL | 15 | -5 | 25% | 75.57 | 1007.6 | |||||||
| 08 | 14:55 | Vrbl 11 | 0.00 | NULL | NULL | 12.8 | 0 | 42% | 75.62 | 1008.3 | |||||||
| 08 | 13:55 | E 13 | 0.00 | NULL | NULL | 11.7 | 1.7 | 12.8 | 6.1 | 51% | 75.67 | 1009.3 | |||||
| 08 | 12:55 | E 19 | 0.00 | NULL | NULL | 10.6 | 4.4 | 66% | 75.74 | 1010.2 | |||||||
| 08 | 11:55 | Calm | 0.00 | NULL | NULL | 11.1 | 2.8 | 57% | 75.77 | 1010.6 | |||||||
| 08 | 10:55 | SW 11 | 0.00 | NULL | NULL | 11.1 | -1.7 | 41% | 75.79 | 1010.9 | |||||||
| 08 | 09:55 | Vrbl 11 | 0.00 | NULL | NULL | 10.6 | -1.7 | 43% | 75.79 | 1010.9 | |||||||
| 08 | 08:55 | SW 9 | 0.00 | NULL | NULL | 8.9 | -0.6 | 52% | 8 | 75.79 | 1011.1 | ||||||
| 08 | 07:55 | SW 7 | 0.00 | NULL | NULL | 6.1 | 0 | 6.1 | 0.6 | 65% | 5 | 75.77 | 1010.7 | ||||
| 08 | 06:55 | SW 11 | 0.00 | NULL | NULL | 2.8 | -0.6 | 79% | 0 | 75.77 | 1010.8 | ||||||
| 08 | 05:55 | SW 9 | 0.00 | NULL | NULL | 1.1 | -0.6 | 89% | -1 | 75.77 | 1010.9 | ||||||
| 08 | 04:55 | SW 9 | 0.00 | NULL | NULL | 1.7 | 0 | 89% | -1 | 75.77 | 1011.0 | ||||||
| 08 | 03:55 | SW 7 | 0.00 | NULL | NULL | 2.8 | 0 | 82% | 1 | 75.77 | 1010.9 | ||||||
| 08 | 02:55 | SW 7 | 0.00 | NULL | NULL | 3.9 | 0.6 | 79% | 2 | 75.77 | 1010.9 | ||||||
| 08 | 01:55 | Calm | 0.00 | NULL | NULL | 3.9 | 0.6 | 6.7 | 2.8 | 79% | 75.79 | 1011.0 | |||||
| 08 | 00:55 | S 9 | 0.00 | NULL | NULL | 4.4 | 0.6 | 77% | 2 | 75.82 | 1011.4 | ||||||
| 07 | 23:55 | SE 6 | 0.00 | NULL | NULL | 4.4 | -1.1 | 68% | 75.82 | 1011.4 | |||||||
| 07 | 22:55 | S 7 | 0.00 | NULL | NULL | 3.9 | -2.2 | 65% | 2 | 75.84 | 1011.6 | ||||||
| 07 | 21:55 | SE 6 | 0.00 | NULL | NULL | 5 | -2.2 | 60% | 75.84 | 1011.6 | |||||||
| 07 | 20:55 | S 7 | 0.00 | NULL | NULL | 5.6 | -2.2 | 58% | 4 | 75.82 | 1011.4 | ||||||
| 07 | 19:55 | S 9 | 0.00 | NULL | NULL | 6.7 | -1.7 | 7.2 | 5.6 | 55% | 5 | 75.79 | 1011.0 | ||||
| 07 | 18:55 | SE 15 | 0.00 | NULL | NULL | 6.7 | -2.8 | 51% | 4 | 75.79 | 1011.2 | ||||||
| 07 | 17:55 | SE 15 | 0.00 | NULL | NULL | 6.7 | -1.7 | 55% | 4 | 75.82 | 1011.4 | ||||||
| 07 | 16:55 | E 17 | 0.00 | NULL | NULL | 6.1 | -1.1 | 60% | 3 | 75.82 | 1011.7 | ||||||
| 07 | 15:55 | SE 17 | 0.00 | NULL | NULL | 6.7 | -0.6 | 60% | 4 | 75.84 | 1011.9 | ||||||
| 07 | 14:55 | NE 20 | 0.00 | NULL | NULL | 6.1 | 0.6 | 68% | 3 | 75.84 | 1011.8 | ||||||
| 07 | 13:55 | N 20 | 0.00 | NULL | NULL | 6.7 | 0 | 8.3 | 3.9 | 63% | 3 | 75.84 | 1011.9 | ||||
| 07 | 12:55 | N 13 | 0.00 | NULL | NULL | 6.7 | 0 | 63% | 4 | 75.92 | 1012.8 | ||||||
| 07 | 11:55 | N 11 | 0.00 | NULL | NULL | 7.2 | 1.1 | 66% | 5 | 75.95 | 1013.0 | ||||||
| 07 | 10:55 | N 11 | 0.00 | NULL | NULL | 6.1 | 1.7 | 74% | 4 | 75.95 | 1013.1 | ||||||
| Date | Time (edt) | Wind (kph) | Vis. (km) | Weather | Sky Cond. | Air | Dwpt | Max. | Min. | Relative Humidity | Wind Chill (°C) | Heat Index (°C) | altimeter (cm) | sea level (mb) | 1 hr | 3 hr | 6 hr |
| 6 hour | |||||||||||||||||
| Temperature (ºC) | Pressure | Precipitation (cm) | |||||||||||||||